Capitol Logistics 559


VIDP
Indira Gandhi International Airport
New Delhi, IN
WSSS
Changi International Airport
Singapore, SG

Activity Log

Date Flight Route Aircraft Duration
11/11/2019 CPX759 ITBAN L759 PUT VPL W531 VIH A464 ARAMA B744 4h 57m

Route Details

Aircraft Information
Primary: Boeing 747-400BCF
Backup: Boeing 777-200LRF
Route Data
Distance: 2241nm
Sched. Duration: 5h 50m
Avg. Duration: 4h 57m (-93m)
Times Flown: 1
Recm'd Route: ITBAN L759 PUT VPL W531 VIH A464 ARAMA
Planned Altitude: 33,000ft
Origin Wx: VIDP 271100Z 15003KT 2200 FU FEW040 SCT100 27/14 Q1012 NOSIG
Dest. Wx: WSSS 271100Z 04011KT 340V070 9999 FEW020 BKN300 29/23 Q1009 NOSIG
Notes:

Financial History
Total Freight: 126,008lbs
Average Load: 126,008lbs/flt
Fuel Used: 105,118lbs
Avg. Fuel Used: 105,118lbs/flt
Fuel Expense: $84,094
Avg. Fuel Expense: $84,094
Avg. Fuel Cost: $0.80/lbs
Total Gross Income: $480,090
Pilot Pay: $239
Total Expenses: $51,902
Total Revenue: $342,911
Average Revenue: $480,090.47